Time;durP1;ratioP1;P1;durP2;ratioP2;P2;SDS_P1;SDS_P2;PMS_P1;PMS_P2;Temp;Humidity;BMP_temperature;BMP_pressure;BME280_temperature;BME280_humidity;BME280_pressure;Samples;Min_cycle;Max_cycle;Signal;HPM_P1;HPM_P2
2021/09/20 00:00:40;;;;;;;10.52;6.78;;;13.60;94.90;;;;;;5032931;28;20037;-63
2021/09/20 00:03:06;;;;;;;11.05;7.22;;;13.60;95.00;;;;;;5032730;28;20041;-63
2021/09/20 00:05:31;;;;;;;8.55;7.00;;;13.60;95.00;;;;;;5031870;28;20037;-63
2021/09/20 00:07:57;;;;;;;10.40;7.40;;;13.60;95.10;;;;;;5032040;28;20033;-63
2021/09/20 00:10:23;;;;;;;8.75;6.60;;;13.50;95.20;;;;;;5021148;28;20034;-63
2021/09/20 00:12:49;;;;;;;10.43;6.57;;;13.50;95.30;;;;;;5011155;28;20565;-63
2021/09/20 00:15:15;;;;;;;8.98;6.63;;;13.50;95.20;;;;;;5012612;28;20142;-63
2021/09/20 00:17:40;;;;;;;7.90;7.07;;;13.50;95.20;;;;;;5012765;28;20113;-63
2021/09/20 00:20:09;;;;;;;10.30;7.05;;;13.50;95.20;;;;;;5043170;28;20038;-65
2021/09/20 00:22:35;;;;;;;10.20;7.05;;;13.40;95.40;;;;;;5012668;28;20041;-63
2021/09/20 00:25:05;;;;;;;8.57;7.00;;;13.50;95.40;;;;;;5012786;28;20034;-64
2021/09/20 00:27:31;;;;;;;8.45;6.15;;;13.50;95.30;;;;;;5011864;28;20060;-63
2021/09/20 00:29:57;;;;;;;8.02;6.85;;;13.60;95.40;;;;;;5012777;28;20037;-63
2021/09/20 00:32:22;;;;;;;8.27;6.60;;;13.60;95.40;;;;;;5011094;28;20034;-64
2021/09/20 00:34:48;;;;;;;6.85;5.93;;;13.60;95.30;;;;;;5012294;28;20365;-63
2021/09/20 00:37:13;;;;;;;9.25;6.90;;;13.60;95.30;;;;;;5012554;28;20117;-63
2021/09/20 00:39:39;;;;;;;9.02;6.68;;;13.50;95.20;;;;;;5012814;28;20061;-63
2021/09/20 00:42:05;;;;;;;7.97;5.70;;;13.60;95.20;;;;;;5012808;28;20396;-63
2021/09/20 00:44:31;;;;;;;7.25;5.90;;;13.60;95.10;;;;;;5012493;28;20030;-63
2021/09/20 00:46:57;;;;;;;10.10;6.57;;;13.60;95.10;;;;;;5012286;28;20026;-63
2021/09/20 00:49:23;;;;;;;7.82;5.97;;;13.60;95.10;;;;;;5012656;28;20034;-63
2021/09/20 00:51:48;;;;;;;6.80;5.78;;;13.50;95.00;;;;;;5012855;28;20421;-64
2021/09/20 00:54:14;;;;;;;8.15;5.90;;;13.50;95.00;;;;;;5012560;28;20026;-64
2021/09/20 00:56:39;;;;;;;7.40;6.13;;;13.50;95.00;;;;;;5012294;28;20038;-63
2021/09/20 00:59:05;;;;;;;6.68;5.78;;;13.40;95.10;;;;;;5012119;28;20137;-64
2021/09/20 01:01:32;;;;;;;9.68;5.90;;;13.50;95.10;;;;;;5010998;28;20148;-64
2021/09/20 01:03:58;;;;;;;8.05;5.85;;;13.50;95.20;;;;;;5012034;28;20034;-64
2021/09/20 01:06:23;;;;;;;7.30;6.18;;;13.50;95.10;;;;;;5011193;28;20049;-64
2021/09/20 01:08:49;;;;;;;11.68;8.50;;;13.50;95.10;;;;;;5012265;28;20046;-63
2021/09/20 01:11:15;;;;;;;7.30;5.93;;;13.50;95.10;;;;;;5012013;28;20048;-63
2021/09/20 01:13:40;;;;;;;8.65;6.13;;;13.60;95.10;;;;;;5011844;28;20030;-63
2021/09/20 01:16:06;;;;;;;13.50;9.43;;;13.50;95.10;;;;;;5012328;28;20054;-64
2021/09/20 01:18:31;;;;;;;18.15;11.77;;;13.50;95.00;;;;;;5013593;28;20034;-63
2021/09/20 01:20:57;;;;;;;8.50;6.40;;;13.50;95.10;;;;;;5015893;28;20080;-62
2021/09/20 01:23:22;;;;;;;8.75;6.28;;;13.40;95.20;;;;;;5015993;28;20045;-63
2021/09/20 01:25:48;;;;;;;6.65;5.88;;;13.40;95.10;;;;;;5016087;28;20066;-63
2021/09/20 01:28:14;;;;;;;7.80;6.20;;;13.40;95.20;;;;;;5016420;28;20520;-64
2021/09/20 01:30:39;;;;;;;8.05;6.30;;;13.40;95.20;;;;;;5015742;28;20034;-63
2021/09/20 01:33:05;;;;;;;8.02;6.15;;;13.40;95.40;;;;;;5014414;28;20038;-63
2021/09/20 01:35:31;;;;;;;8.88;6.20;;;13.50;95.30;;;;;;5014725;28;20025;-64
2021/09/20 01:37:56;;;;;;;7.25;5.85;;;13.50;95.30;;;;;;5014480;28;20038;-64
2021/09/20 01:40:23;;;;;;;7.65;5.93;;;13.50;95.20;;;;;;5016043;28;20030;-63
2021/09/20 01:42:49;;;;;;;6.20;5.47;;;13.50;95.20;;;;;;5015698;28;20037;-64
2021/09/20 01:45:16;;;;;;;7.90;6.22;;;13.50;95.10;;;;;;5015794;28;20034;-63
2021/09/20 01:47:44;;;;;;;9.25;5.50;;;13.40;95.00;;;;;;5015616;28;20389;-62
2021/09/20 01:50:11;;;;;;;7.22;5.70;;;13.40;95.10;;;;;;5014627;28;20132;-63
2021/09/20 01:52:38;;;;;;;7.47;6.18;;;13.40;95.10;;;;;;5013665;28;20034;-63
2021/09/20 01:55:08;;;;;;;7.43;6.10;;;13.40;95.10;;;;;;5015436;28;20033;-64
2021/09/20 01:57:34;;;;;;;7.18;5.70;;;13.40;95.10;;;;;;5015354;28;20080;-64
2021/09/20 02:00:00;;;;;;;7.07;5.68;;;13.30;95.20;;;;;;5015065;28;20034;-64
2021/09/20 02:02:25;;;;;;;7.85;5.68;;;13.30;95.20;;;;;;5015144;28;20050;-63
2021/09/20 02:04:51;;;;;;;8.35;6.32;;;13.30;95.40;;;;;;5015000;28;20533;-64
2021/09/20 02:07:16;;;;;;;8.55;6.03;;;13.30;95.50;;;;;;5015603;28;20037;-64
2021/09/20 02:09:42;;;;;;;8.07;6.32;;;13.30;95.40;;;;;;5016209;28;20103;-63
2021/09/20 02:12:08;;;;;;;7.95;6.45;;;13.30;95.50;;;;;;5013827;28;20041;-63
2021/09/20 02:14:33;;;;;;;9.20;6.35;;;13.20;95.40;;;;;;5014884;28;20414;-63
2021/09/20 02:16:59;;;;;;;8.32;6.95;;;13.10;95.60;;;;;;5015132;28;20180;-63
2021/09/20 02:19:25;;;;;;;7.55;6.30;;;13.10;95.70;;;;;;5014572;28;20117;-63
2021/09/20 02:21:50;;;;;;;9.95;6.90;;;13.10;95.80;;;;;;5014901;28;20045;-63
2021/09/20 02:24:16;;;;;;;11.15;6.43;;;13.10;95.90;;;;;;5013726;28;20030;-63
2021/09/20 02:26:42;;;;;;;8.13;6.47;;;13.10;96.00;;;;;;5014866;28;20572;-62
2021/09/20 02:29:07;;;;;;;9.00;6.10;;;13.10;95.90;;;;;;5014236;28;20524;-63
2021/09/20 02:31:33;;;;;;;11.57;6.80;;;13.10;95.90;;;;;;5014054;28;20034;-63
2021/09/20 02:33:58;;;;;;;7.72;6.13;;;13.10;95.90;;;;;;5013366;28;20382;-63
2021/09/20 02:36:24;;;;;;;8.30;6.18;;;13.10;95.90;;;;;;5014808;28;20432;-63
2021/09/20 02:38:50;;;;;;;8.48;6.43;;;13.10;95.90;;;;;;5014731;28;20044;-63
2021/09/20 02:41:16;;;;;;;7.43;6.55;;;13.10;96.10;;;;;;5014629;28;20037;-63
2021/09/20 02:43:42;;;;;;;9.13;6.05;;;13.10;96.00;;;;;;5014321;28;20048;-62
2021/09/20 02:46:08;;;;;;;7.13;5.82;;;13.10;95.80;;;;;;5014474;28;20037;-63
2021/09/20 02:48:33;;;;;;;10.00;6.55;;;13.10;95.90;;;;;;5014865;28;20045;-63
2021/09/20 02:51:00;;;;;;;8.63;6.47;;;13.10;96.10;;;;;;5014466;28;20497;-63
2021/09/20 02:53:25;;;;;;;10.57;6.32;;;13.10;96.00;;;;;;5014052;28;20036;-63
2021/09/20 02:55:51;;;;;;;9.30;6.35;;;13.10;96.00;;;;;;4997216;28;20128;-62
2021/09/20 02:58:17;;;;;;;10.77;7.35;;;13.00;96.10;;;;;;5014606;28;20052;-63
2021/09/20 03:00:42;;;;;;;8.13;5.82;;;13.00;96.10;;;;;;5013917;28;20088;-63
2021/09/20 03:03:08;;;;;;;7.97;6.20;;;13.00;96.20;;;;;;5014033;28;20599;-63
2021/09/20 03:05:37;;;;;;;9.93;6.60;;;13.00;96.20;;;;;;5014640;28;20033;-63
2021/09/20 03:08:04;;;;;;;9.07;6.10;;;13.00;96.10;;;;;;5014022;28;20040;-63
2021/09/20 03:10:30;;;;;;;10.13;6.68;;;13.00;96.10;;;;;;5014108;28;20045;-63
2021/09/20 03:12:56;;;;;;;8.57;6.22;;;13.00;96.20;;;;;;5013172;28;20043;-63
2021/09/20 03:15:21;;;;;;;7.63;6.10;;;13.00;96.10;;;;;;5013873;28;20529;-63
2021/09/20 03:17:48;;;;;;;8.38;6.03;;;13.00;96.00;;;;;;5013954;28;20524;-62
2021/09/20 03:20:14;;;;;;;7.63;5.95;;;13.00;96.10;;;;;;5014420;28;20385;-63
2021/09/20 03:22:40;;;;;;;10.77;6.43;;;13.00;96.00;;;;;;5013326;28;20497;-62
2021/09/20 03:25:07;;;;;;;7.63;6.18;;;12.90;95.90;;;;;;5014495;28;20100;-64
2021/09/20 03:27:33;;;;;;;7.22;6.25;;;12.90;96.20;;;;;;5013679;28;20038;-64
2021/09/20 03:29:59;;;;;;;7.63;5.75;;;13.00;96.10;;;;;;5012349;28;20141;-64
2021/09/20 03:32:24;;;;;;;9.18;5.97;;;12.90;96.10;;;;;;5013173;28;20552;-63
2021/09/20 03:34:50;;;;;;;8.48;6.15;;;12.90;96.00;;;;;;5012968;28;20053;-63
2021/09/20 03:37:15;;;;;;;7.05;5.95;;;12.80;96.20;;;;;;5013704;28;20037;-63
2021/09/20 03:39:41;;;;;;;7.32;5.65;;;12.80;96.00;;;;;;5013947;28;20026;-64
2021/09/20 03:42:07;;;;;;;7.45;5.70;;;12.90;96.00;;;;;;5012811;28;20100;-63
2021/09/20 03:44:33;;;;;;;9.07;5.57;;;12.70;96.20;;;;;;5013224;28;20053;-64
2021/09/20 03:46:58;;;;;;;9.75;6.28;;;12.70;96.40;;;;;;5012051;28;20053;-64
2021/09/20 03:49:24;;;;;;;8.63;5.93;;;12.70;96.40;;;;;;5012025;28;20445;-64
2021/09/20 03:51:49;;;;;;;8.23;5.72;;;12.70;96.50;;;;;;5012819;28;20045;-63
2021/09/20 03:54:15;;;;;;;7.78;5.30;;;12.70;96.30;;;;;;5013421;28;20026;-63
2021/09/20 03:56:41;;;;;;;11.73;6.07;;;12.70;96.40;;;;;;5013086;28;20080;-64
2021/09/20 03:59:06;;;;;;;8.35;5.68;;;12.70;96.30;;;;;;5013276;28;20072;-64
2021/09/20 04:01:32;;;;;;;11.00;6.28;;;12.80;96.20;;;;;;5012162;28;20584;-64
2021/09/20 04:03:58;;;;;;;14.45;8.25;;;12.70;96.20;;;;;;5011917;28;20398;-64
2021/09/20 04:06:24;;;;;;;7.55;5.55;;;12.80;96.30;;;;;;5013670;28;20064;-63
2021/09/20 04:08:49;;;;;;;8.88;5.78;;;12.70;96.30;;;;;;5021857;28;20092;-64
2021/09/20 04:11:15;;;;;;;8.77;6.15;;;12.70;96.40;;;;;;5014036;28;20041;-64
2021/09/20 04:13:41;;;;;;;7.75;5.70;;;12.70;96.50;;;;;;4995367;28;20068;-64
2021/09/20 04:16:06;;;;;;;9.98;6.72;;;12.80;96.50;;;;;;5012697;28;20026;-63
2021/09/20 04:18:32;;;;;;;8.30;5.63;;;12.80;96.40;;;;;;5012902;28;20065;-63
2021/09/20 04:20:57;;;;;;;8.23;5.70;;;12.80;96.50;;;;;;5012889;28;20046;-63
2021/09/20 04:23:25;;;;;;;9.30;6.00;;;12.80;96.50;;;;;;5012810;28;20446;-64
2021/09/20 04:25:51;;;;;;;8.55;5.68;;;12.90;96.40;;;;;;5011453;28;20125;-63
2021/09/20 04:28:18;;;;;;;9.40;5.57;;;12.90;96.10;;;;;;5012844;28;20072;-63
2021/09/20 04:30:44;;;;;;;7.35;5.43;;;12.90;95.90;;;;;;5012748;28;20517;-64
2021/09/20 04:33:18;;;;;;;8.10;5.20;;;12.90;95.90;;;;;;5012468;28;20022;-64
2021/09/20 04:35:44;;;;;;;5.90;5.30;;;12.80;96.00;;;;;;5013450;28;20033;-64
2021/09/20 04:38:10;;;;;;;8.00;6.10;;;12.80;96.10;;;;;;5013042;28;20058;-64
2021/09/20 04:40:37;;;;;;;7.88;5.40;;;12.60;96.30;;;;;;5013075;28;20374;-63
2021/09/20 04:43:07;;;;;;;8.32;5.38;;;12.70;96.20;;;;;;5013300;28;20037;-65
2021/09/20 04:45:37;;;;;;;7.93;5.40;;;12.60;96.40;;;;;;5013182;28;20038;-64
2021/09/20 04:48:04;;;;;;;11.13;6.72;;;12.60;96.40;;;;;;5011641;28;20405;-64
2021/09/20 04:50:30;;;;;;;9.70;6.15;;;12.60;96.60;;;;;;5012971;28;20057;-63
2021/09/20 04:52:55;;;;;;;11.98;5.80;;;12.70;96.50;;;;;;5012641;28;20490;-62
2021/09/20 04:55:21;;;;;;;8.52;5.30;;;12.70;96.40;;;;;;5017296;28;20037;-63
2021/09/20 04:57:46;;;;;;;9.38;5.50;;;12.70;96.50;;;;;;5015812;28;20073;-63
2021/09/20 05:00:13;;;;;;;7.13;5.20;;;12.70;96.50;;;;;;5014836;28;20036;-63
2021/09/20 05:02:39;;;;;;;9.02;5.43;;;12.70;96.50;;;;;;5016650;28;20030;-63
2021/09/20 05:05:05;;;;;;;12.07;6.05;;;12.80;96.50;;;;;;5016605;28;20469;-64
2021/09/20 05:07:31;;;;;;;7.40;5.28;;;12.80;96.30;;;;;;5016631;28;20087;-64
2021/09/20 05:09:56;;;;;;;7.45;5.32;;;12.80;96.00;;;;;;5016613;28;20493;-64
2021/09/20 05:12:22;;;;;;;7.70;5.18;;;12.70;96.10;;;;;;5016677;28;20060;-64
2021/09/20 05:14:47;;;;;;;10.82;5.60;;;12.70;96.10;;;;;;5016020;28;20092;-64
2021/09/20 05:17:13;;;;;;;6.85;5.15;;;12.70;96.10;;;;;;5048189;28;20473;-63
2021/09/20 05:19:39;;;;;;;8.63;5.10;;;12.80;96.10;;;;;;5015956;28;20052;-63
2021/09/20 05:22:04;;;;;;;6.97;5.60;;;12.80;96.00;;;;;;5031617;28;20044;-64
2021/09/20 05:24:30;;;;;;;9.35;5.50;;;12.70;96.00;;;;;;5035238;28;20108;-64
2021/09/20 05:26:56;;;;;;;7.97;5.45;;;12.70;95.90;;;;;;5036057;28;20100;-63
2021/09/20 05:29:22;;;;;;;25.17;14.70;;;12.60;96.00;;;;;;5035819;28;20454;-64
2021/09/20 05:31:48;;;;;;;8.52;6.35;;;12.60;96.20;;;;;;5035803;28;20381;-63
2021/09/20 05:34:13;;;;;;;6.45;5.50;;;12.70;96.00;;;;;;5035839;28;20485;-64
2021/09/20 05:36:39;;;;;;;8.82;5.40;;;12.50;96.10;;;;;;5035514;28;20025;-63
2021/09/20 05:39:04;;;;;;;9.15;5.13;;;12.50;96.30;;;;;;5018388;28;20037;-63
2021/09/20 05:41:30;;;;;;;12.35;5.47;;;12.50;96.30;;;;;;5036002;28;20461;-64
2021/09/20 05:43:56;;;;;;;9.13;5.40;;;12.40;96.50;;;;;;5034944;28;20045;-62
2021/09/20 05:46:21;;;;;;;7.70;5.47;;;12.30;96.60;;;;;;5035930;28;20566;-64
2021/09/20 05:48:47;;;;;;;6.90;4.75;;;12.40;96.50;;;;;;5035252;28;20041;-64
2021/09/20 05:51:13;;;;;;;10.88;5.78;;;12.30;96.60;;;;;;5034301;28;20705;-62
2021/09/20 05:53:39;;;;;;;8.13;5.63;;;12.40;96.60;;;;;;5033963;28;20017;-63
2021/09/20 05:56:05;;;;;;;8.45;5.70;;;12.50;96.50;;;;;;5032288;28;20033;-64
2021/09/20 05:58:30;;;;;;;7.53;4.97;;;12.60;96.40;;;;;;5035794;28;20057;-63
2021/09/20 06:00:56;;;;;;;8.05;4.90;;;12.70;96.20;;;;;;5034593;28;20038;-64
2021/09/20 06:03:22;;;;;;;10.98;4.88;;;12.70;95.80;;;;;;5035844;28;20464;-62
2021/09/20 06:05:48;;;;;;;6.28;5.22;;;12.70;95.70;;;;;;5033403;28;20040;-63
2021/09/20 06:08:14;;;;;;;6.13;4.80;;;12.80;95.90;;;;;;5035814;28;20029;-63
2021/09/20 06:10:40;;;;;;;6.97;5.30;;;12.70;95.50;;;;;;5020267;28;20030;-63
2021/09/20 06:13:07;;;;;;;8.30;5.00;;;12.60;95.70;;;;;;5014718;28;20033;-63
2021/09/20 06:15:36;;;;;;;10.55;6.10;;;12.50;96.20;;;;;;5015660;28;20437;-63
2021/09/20 06:18:03;;;;;;;11.23;7.05;;;12.50;96.20;;;;;;5015383;28;20042;-63
2021/09/20 06:20:29;;;;;;;7.38;5.25;;;12.60;96.30;;;;;;5015245;28;20041;-63
2021/09/20 06:22:54;;;;;;;10.95;6.10;;;12.60;96.00;;;;;;5015733;28;20061;-63
2021/09/20 06:25:20;;;;;;;11.05;5.80;;;12.60;95.90;;;;;;5015428;28;20048;-63
2021/09/20 06:27:46;;;;;;;10.32;6.15;;;12.60;96.10;;;;;;5015197;28;20034;-63
2021/09/20 06:30:12;;;;;;;10.27;5.25;;;12.60;96.00;;;;;;5015447;28;20030;-63
2021/09/20 06:32:38;;;;;;;8.93;5.20;;;12.70;95.90;;;;;;5020805;28;20036;-63
2021/09/20 06:35:05;;;;;;;7.32;5.38;;;12.60;95.80;;;;;;5034800;28;20033;-63
2021/09/20 06:37:30;;;;;;;7.20;5.50;;;12.70;95.90;;;;;;5034174;28;20503;-63
2021/09/20 06:39:56;;;;;;;8.02;5.63;;;12.70;95.80;;;;;;5035375;28;20113;-64
2021/09/20 06:42:22;;;;;;;8.20;5.53;;;12.70;95.80;;;;;;5033151;28;20044;-63
2021/09/20 06:44:51;;;;;;;9.80;6.00;;;12.70;95.70;;;;;;5034031;28;20520;-62
2021/09/20 06:47:18;;;;;;;8.75;5.55;;;12.80;95.60;;;;;;5032985;28;20116;-64
2021/09/20 06:49:44;;;;;;;9.82;5.70;;;12.70;95.70;;;;;;5034926;28;20029;-63
2021/09/20 06:52:09;;;;;;;7.95;5.45;;;12.80;95.70;;;;;;5030006;28;20041;-64
2021/09/20 06:54:35;;;;;;;11.15;5.28;;;12.70;95.40;;;;;;5022473;28;20025;-63
2021/09/20 06:57:03;;;;;;;7.85;5.43;;;12.70;95.30;;;;;;5013359;28;20026;-64
2021/09/20 06:59:29;;;;;;;7.15;4.88;;;12.70;95.40;;;;;;5014096;28;20489;-62
2021/09/20 07:01:55;;;;;;;10.55;5.47;;;12.70;95.50;;;;;;5024212;28;20068;-64
2021/09/20 07:04:20;;;;;;;7.57;5.85;;;12.80;95.30;;;;;;5033442;28;20416;-62
2021/09/20 07:06:46;;;;;;;8.60;4.90;;;12.90;94.90;;;;;;5035065;28;20033;-64
2021/09/20 07:09:13;;;;;;;7.38;4.90;;;13.00;94.70;;;;;;5030763;28;20170;-63
2021/09/20 07:11:39;;;;;;;9.57;4.90;;;13.10;94.60;;;;;;5007847;28;20060;-64
2021/09/20 07:14:04;;;;;;;8.00;4.68;;;13.20;94.40;;;;;;4998183;28;20035;-63
2021/09/20 07:16:31;;;;;;;8.60;5.32;;;13.10;94.40;;;;;;4996068;28;20043;-63
2021/09/20 07:18:58;;;;;;;10.13;6.00;;;13.20;94.80;;;;;;4994104;28;20045;-63
2021/09/20 07:21:24;;;;;;;9.93;5.20;;;13.20;94.40;;;;;;5015558;28;20060;-63
2021/09/20 07:23:57;;;;;;;8.45;5.13;;;13.30;94.40;;;;;;5033831;28;20172;-63
2021/09/20 07:26:25;;;;;;;8.82;5.10;;;13.40;94.00;;;;;;5033695;28;20041;-64
2021/09/20 07:28:51;;;;;;;8.60;4.70;;;13.40;93.80;;;;;;5031897;28;20431;-64
2021/09/20 07:31:16;;;;;;;12.57;6.32;;;13.40;93.70;;;;;;5017948;28;20121;-63
2021/09/20 07:33:42;;;;;;;9.43;4.78;;;13.40;93.60;;;;;;5021162;28;20029;-64
2021/09/20 07:36:08;;;;;;;12.43;5.20;;;13.50;93.60;;;;;;5031600;28;20095;-63
2021/09/20 07:38:35;;;;;;;6.80;4.93;;;13.50;93.30;;;;;;5034826;28;20056;-63
2021/09/20 07:41:04;;;;;;;7.63;5.38;;;13.60;93.20;;;;;;5033119;28;20116;-63
2021/09/20 07:43:29;;;;;;;7.93;4.22;;;13.60;93.00;;;;;;5034044;28;20041;-63
2021/09/20 07:45:55;;;;;;;7.80;4.80;;;13.70;93.00;;;;;;5018589;28;20555;-62
2021/09/20 07:48:21;;;;;;;7.72;4.70;;;13.70;92.80;;;;;;5033578;28;20041;-63
2021/09/20 07:50:47;;;;;;;6.90;5.18;;;13.80;92.80;;;;;;5023583;28;20076;-63
2021/09/20 07:53:12;;;;;;;7.43;4.95;;;13.90;92.60;;;;;;5017875;28;20037;-63
2021/09/20 07:55:38;;;;;;;29.58;6.75;;;13.90;92.40;;;;;;5033953;28;20091;-63
2021/09/20 07:58:05;;;;;;;9.85;5.10;;;14.00;92.50;;;;;;5033222;28;20032;-63
2021/09/20 08:00:31;;;;;;;6.85;4.63;;;13.90;92.00;;;;;;5031529;28;20089;-63
2021/09/20 08:02:57;;;;;;;12.98;4.82;;;13.90;91.60;;;;;;5026344;28;20044;-64
2021/09/20 08:05:23;;;;;;;21.50;6.25;;;13.90;92.00;;;;;;5018438;28;20035;-63
2021/09/20 08:07:48;;;;;;;7.88;4.75;;;13.90;92.50;;;;;;5003586;28;20041;-63
2021/09/20 08:10:14;;;;;;;7.53;5.18;;;14.00;92.10;;;;;;5002042;28;20038;-61
2021/09/20 08:12:41;;;;;;;6.88;5.03;;;14.10;92.00;;;;;;5013468;28;20061;-64
2021/09/20 08:15:07;;;;;;;5.72;4.60;;;14.30;91.80;;;;;;5012170;28;20394;-64
2021/09/20 08:17:33;;;;;;;6.45;4.50;;;14.30;91.30;;;;;;5013656;28;20034;-63
2021/09/20 08:20:00;;;;;;;5.88;4.53;;;14.30;91.60;;;;;;5012833;28;20040;-63
2021/09/20 08:22:26;;;;;;;6.72;4.82;;;14.30;91.30;;;;;;5013429;28;20081;-64
2021/09/20 08:24:51;;;;;;;5.63;4.60;;;14.40;91.50;;;;;;5014596;28;20229;-63
2021/09/20 08:27:17;;;;;;;8.82;4.95;;;14.50;91.00;;;;;;5013454;28;20429;-62
2021/09/20 08:29:43;;;;;;;8.43;4.57;;;14.60;91.20;;;;;;5014928;28;20708;-63
2021/09/20 08:32:08;;;;;;;6.25;4.35;;;14.60;90.90;;;;;;5012432;28;20041;-63
2021/09/20 08:34:37;;;;;;;8.57;5.05;;;14.80;90.80;;;;;;5012849;28;20065;-64
2021/09/20 08:37:03;;;;;;;6.05;4.25;;;14.90;90.70;;;;;;5013965;28;20026;-65
2021/09/20 08:39:29;;;;;;;6.78;4.20;;;14.90;90.00;;;;;;5011529;28;20042;-63
2021/09/20 08:41:56;;;;;;;5.95;4.32;;;15.00;89.50;;;;;;5003531;28;20041;-65
2021/09/20 08:44:22;;;;;;;6.90;4.45;;;15.20;89.50;;;;;;5025257;28;20034;-63
2021/09/20 08:46:50;;;;;;;5.32;4.05;;;15.20;88.10;;;;;;5029949;28;20139;-64
2021/09/20 08:49:19;;;;;;;6.45;4.45;;;15.20;87.30;;;;;;5030121;28;20046;-64
2021/09/20 08:51:44;;;;;;;6.53;4.18;;;15.10;86.80;;;;;;5029834;28;20088;-64
2021/09/20 08:54:10;;;;;;;6.18;3.60;;;15.10;86.60;;;;;;5034682;28;20034;-64
2021/09/20 08:56:36;;;;;;;6.88;3.95;;;15.20;86.80;;;;;;5007479;28;20041;-64
2021/09/20 08:59:02;;;;;;;7.53;3.83;;;15.30;85.90;;;;;;5011971;28;20112;-64
2021/09/20 09:01:30;;;;;;;7.82;4.10;;;15.30;86.60;;;;;;5012248;28;20037;-64
2021/09/20 09:04:20;;;;;;;6.97;4.00;;;15.30;85.90;;;;;;5011816;28;20038;-64
2021/09/20 09:06:57;;;;;;;4.95;4.10;;;15.20;84.70;;;;;;5013467;28;20529;-64
2021/09/20 09:09:43;;;;;;;9.02;4.07;;;15.30;84.00;;;;;;5019677;28;20092;-63
2021/09/20 09:12:24;;;;;;;33.17;5.28;;;15.40;84.60;;;;;;5010341;28;20057;-62
2021/09/20 09:14:57;;;;;;;14.40;5.25;;;15.50;84.50;;;;;;5004909;28;20026;-64
2021/09/20 09:17:26;;;;;;;9.35;4.53;;;15.60;84.40;;;;;;5007555;28;20528;-63
2021/09/20 09:20:11;;;;;;;6.55;4.07;;;15.70;83.10;;;;;;5012904;28;20101;-63
2021/09/20 09:22:46;;;;;;;6.88;3.80;;;15.60;82.90;;;;;;5012977;28;20034;-63
2021/09/20 09:25:34;;;;;;;6.00;4.05;;;15.80;83.00;;;;;;5010872;28;20128;-63
2021/09/20 09:28:02;;;;;;;8.68;4.82;;;15.80;82.60;;;;;;5002328;28;20836;-63
2021/09/20 09:30:37;;;;;;;7.20;4.22;;;15.80;83.10;;;;;;5012850;28;20042;-63
2021/09/20 09:33:07;;;;;;;;;;;15.90;83.60;;;;;;5012667;28;20041;-63
2021/09/20 09:35:34;;;;;;;8.05;4.20;;;16.00;82.30;;;;;;5008473;28;19910;-63
2021/09/20 09:38:05;;;;;;;5.53;3.70;;;16.00;81.90;;;;;;5012578;28;20115;-63
2021/09/20 09:40:46;;;;;;;6.20;3.70;;;16.00;82.00;;;;;;5015920;28;20053;-64
2021/09/20 09:43:11;;;;;;;5.65;3.85;;;16.20;81.80;;;;;;5016086;28;20084;-68
2021/09/20 09:45:37;;;;;;;6.05;4.53;;;16.00;79.40;;;;;;5014971;28;20413;-68
2021/09/20 09:48:18;;;;;;;7.50;3.85;;;15.80;79.80;;;;;;5009481;28;20037;-61
2021/09/20 09:50:54;;;;;;;4.32;3.30;;;15.90;80.50;;;;;;5036879;28;20029;-63
2021/09/20 09:53:35;;;;;;;4.88;3.88;;;15.90;79.60;;;;;;5035666;28;20033;-65
2021/09/20 09:56:25;;;;;;;11.38;4.55;;;15.80;77.80;;;;;;5029026;28;20117;-63
2021/09/20 09:58:59;;;;;;;5.18;3.65;;;15.80;78.70;;;;;;5003142;28;20533;-63
2021/09/20 10:01:33;;;;;;;6.13;3.40;;;15.70;78.10;;;;;;5013385;28;20053;-62
2021/09/20 10:04:06;;;;;;;;;;;15.70;78.50;;;;;;5012650;28;20272;-65
2021/09/20 10:06:41;;;;;;;5.95;3.40;;;15.80;78.00;;;;;;5012975;28;20333;-63
2021/09/20 10:09:08;;;;;;;6.50;3.58;;;15.80;77.90;;;;;;5012553;28;20042;-63
2021/09/20 10:11:35;;;;;;;4.50;3.40;;;15.80;77.90;;;;;;5014320;28;20030;-62
2021/09/20 10:14:01;;;;;;;7.38;3.88;;;15.90;78.90;;;;;;5013849;28;20052;-63
2021/09/20 10:16:29;;;;;;;4.82;3.38;;;16.00;78.80;;;;;;5011997;28;20014;-63
2021/09/20 10:18:55;;;;;;;5.35;3.53;;;16.00;78.80;;;;;;5015025;28;20036;-64
2021/09/20 10:21:20;;;;;;;5.97;3.67;;;16.00;78.40;;;;;;5015214;28;20120;-64
2021/09/20 10:23:47;;;;;;;7.05;3.92;;;16.00;77.70;;;;;;5014623;28;20026;-61
2021/09/20 10:26:15;;;;;;;5.53;3.78;;;15.90;77.90;;;;;;5015401;28;20037;-62
2021/09/20 10:28:41;;;;;;;5.20;3.95;;;15.90;78.60;;;;;;5013885;28;20041;-65
2021/09/20 10:31:09;;;;;;;5.70;3.85;;;16.00;78.70;;;;;;5014502;28;20038;-63
2021/09/20 10:33:35;;;;;;;11.30;3.92;;;15.90;77.50;;;;;;5011101;28;20038;-63
2021/09/20 10:36:01;;;;;;;7.25;3.35;;;15.80;75.00;;;;;;5013753;28;20030;-63
2021/09/20 10:38:29;;;;;;;5.32;3.42;;;15.50;75.30;;;;;;5012993;28;20104;-63
2021/09/20 10:41:17;;;;;;;7.18;3.17;;;15.40;74.40;;;;;;5013577;28;20026;-62
2021/09/20 10:43:48;;;;;;;5.05;3.28;;;15.40;74.80;;;;;;5011636;28;20022;-61
2021/09/20 10:46:24;;;;;;;4.55;3.03;;;15.30;74.60;;;;;;5014638;28;20109;-63
2021/09/20 10:48:55;;;;;;;9.40;3.80;;;15.30;75.70;;;;;;5012528;28;20030;-63
2021/09/20 10:51:24;;;;;;;9.98;3.70;;;15.40;75.20;;;;;;5012822;28;20037;-63
2021/09/20 10:54:20;;;;;;;6.95;3.78;;;15.50;76.10;;;;;;5013475;28;20385;-64
2021/09/20 10:56:52;;;;;;;4.47;3.30;;;15.50;75.90;;;;;;5012542;28;20072;-63
2021/09/20 10:59:19;;;;;;;7.85;3.75;;;15.60;75.20;;;;;;5013706;28;20081;-62
2021/09/20 11:01:55;;;;;;;5.45;4.20;;;15.70;73.00;;;;;;5014375;28;20362;-63
2021/09/20 11:04:27;;;;;;;4.22;3.13;;;15.30;72.40;;;;;;5014714;28;20041;-63
2021/09/20 11:07:14;;;;;;;4.90;3.55;;;15.30;73.90;;;;;;5015244;28;20025;-63
2021/09/20 11:10:01;;;;;;;4.72;3.50;;;15.40;73.70;;;;;;5013914;28;20037;-64
2021/09/20 11:12:27;;;;;;;5.30;3.50;;;15.30;72.60;;;;;;5014727;28;20037;-63
2021/09/20 11:14:59;;;;;;;4.03;3.50;;;15.40;72.50;;;;;;5014930;28;20041;-63
2021/09/20 11:17:46;;;;;;;7.15;3.80;;;15.50;73.10;;;;;;5014224;28;20030;-62
2021/09/20 11:20:21;;;;;;;4.97;3.60;;;15.50;73.90;;;;;;5014343;28;20155;-63
2021/09/20 11:22:47;;;;;;;4.43;3.30;;;15.50;73.10;;;;;;5012409;28;20038;-63
2021/09/20 11:25:16;;;;;;;6.75;3.80;;;15.60;72.70;;;;;;5012583;28;20042;-63
2021/09/20 11:27:44;;;;;;;5.47;3.45;;;15.50;72.00;;;;;;5021538;28;20092;-62
2021/09/20 11:30:16;;;;;;;5.60;3.80;;;15.60;71.70;;;;;;5029235;28;20075;-62
2021/09/20 11:33:00;;;;;;;4.40;3.28;;;15.70;72.70;;;;;;5011380;28;20922;-63
2021/09/20 11:35:31;;;;;;;3.95;3.42;;;15.80;73.00;;;;;;5009966;28;20144;-61
2021/09/20 11:38:12;;;;;;;6.70;3.40;;;16.00;73.50;;;;;;5012669;28;20048;-61
2021/09/20 11:40:37;;;;;;;3.50;3.20;;;16.20;73.20;;;;;;5012334;28;20026;-63
2021/09/20 11:43:05;;;;;;;4.88;3.50;;;16.40;73.10;;;;;;5012299;28;20034;-63
2021/09/20 11:45:36;;;;;;;5.93;3.50;;;16.50;72.40;;;;;;5011903;28;20463;-62
2021/09/20 11:48:08;;;;;;;6.30;3.42;;;16.50;72.10;;;;;;5010209;28;20129;-65
2021/09/20 11:50:36;;;;;;;4.82;2.90;;;16.60;72.30;;;;;;5012819;28;20034;-62
2021/09/20 11:53:07;;;;;;;6.22;3.30;;;16.50;71.30;;;;;;5010224;28;20559;-62
2021/09/20 11:55:38;;;;;;;6.03;3.88;;;16.60;71.80;;;;;;5014168;28;20354;-63
2021/09/20 11:58:09;;;;;;;4.88;3.33;;;16.60;71.70;;;;;;5021463;28;20062;-62
2021/09/20 12:00:36;;;;;;;6.22;2.97;;;16.40;71.90;;;;;;5013188;28;20069;-61
2021/09/20 12:03:08;;;;;;;4.20;3.40;;;16.20;71.40;;;;;;5012924;28;20673;-62
2021/09/20 12:05:37;;;;;;;5.28;3.25;;;16.20;71.70;;;;;;5011910;28;20440;-63
2021/09/20 12:08:07;;;;;;;6.57;3.45;;;16.30;72.50;;;;;;5043149;28;20117;-62
2021/09/20 12:10:36;;;;;;;9.93;3.90;;;16.40;72.20;;;;;;5018099;28;20033;-62
2021/09/20 12:13:11;;;;;;;5.90;3.53;;;16.50;71.90;;;;;;5032349;28;20554;-63
2021/09/20 12:15:40;;;;;;;5.15;3.30;;;16.60;71.50;;;;;;5032903;28;20041;-63
2021/09/20 12:18:13;;;;;;;5.05;3.78;;;16.60;71.80;;;;;;5032925;28;20030;-66
2021/09/20 12:21:01;;;;;;;5.35;3.60;;;16.70;72.40;;;;;;5023846;28;20036;-62
2021/09/20 12:23:31;;;;;;;4.53;3.30;;;16.70;71.50;;;;;;5012748;28;20100;-61
2021/09/20 12:26:08;;;;;;;6.20;3.35;;;16.50;70.90;;;;;;5013065;28;20108;-62
2021/09/20 12:28:37;;;;;;;5.90;3.65;;;16.30;71.20;;;;;;5014258;28;20030;-62
2021/09/20 12:31:17;;;;;;;6.28;3.80;;;16.30;71.40;;;;;;5012670;28;20091;-62
2021/09/20 12:33:52;;;;;;;8.50;3.83;;;16.30;71.90;;;;;;5012878;28;20045;-63
2021/09/20 12:36:29;;;;;;;5.07;3.70;;;16.50;72.10;;;;;;5012964;28;20026;-59
2021/09/20 12:38:59;;;;;;;5.93;3.10;;;16.50;71.00;;;;;;5013034;28;20038;-61
2021/09/20 12:41:35;;;;;;;5.07;3.42;;;16.40;71.00;;;;;;5012768;28;20033;-62
2021/09/20 12:44:01;;;;;;;4.95;3.42;;;16.30;71.20;;;;;;5016046;28;20113;-62
2021/09/20 12:46:30;;;;;;;5.07;3.47;;;16.20;71.70;;;;;;5013254;28;20786;-62
2021/09/20 12:48:56;;;;;;;8.85;4.35;;;16.30;71.40;;;;;;5010552;28;20038;-61